• Join FlightAware (Why Join?)
  • Login
  • US Flag 
04:50AM EDT


 

Airport Tracker/Info


-or-


 

Live Flight TrackerFlight Track Log ✈ USC1801 ✈ 21-Jun-2013 ✈ CYUL - KBGM

Flight Track Log - Related Links

Times and Time Zones

All times are in EDT time to prevent confusion due to time zone crossing. See the USC1801 flight status page for this flight to view local times or setup timezone preferences in your user account.

Time Position Orientation Groundspeed Altitude Reporting Facility
EDT Latitude Longitude Course Direction KTS MPH feet Rate Location/Type
02:00PM 45.4167 -73.7167 180° South 120 138 2,600  Level Montreal Center
02:01PM 45.3667 -73.7333 193° South 130 150 3,700 1,020 Climbing Montreal Center
02:02PM 45.3333 -73.7333 180° South 140 161 4,700 900 Climbing Montreal Center
02:03PM 45.3000 -73.7500 199° South 130 150 5,600 600 Climbing Montreal Center
02:04PM 45.1907 -73.9429 207° Southwest  Level Estimated
02:04PM 45.2667 -73.7833 215° Southwest 160 184 6,000  Level Montreal Center
02:05PM 45.2333 -73.8333 227° Southwest 170 196 6,100  Climbing Montreal Center
02:06PM 45.1833 -73.8833 215° Southwest 180 207 6,100  Level Montreal Center
02:08PM 45.1167 -73.9500 215° Southwest 180 207 6,100  Level Montreal Center
02:09PM 45.0667 -74.0000 215° Southwest 180 207 6,100  Level Montreal Center
02:10PM 45.0333 -74.0167 199° South 180 207 6,100  Level Montreal Center
02:11PM 44.9833 -74.0667 215° Southwest 170 196 6,100 -60 Level Montreal Center
02:12PM 44.9333 -74.1000 205° Southwest 180 207 6,000  Descending Montreal Center
02:13PM 44.8833 -74.1000 180° South 180 207 6,100  Climbing Montreal Center
02:14PM 44.8500 -74.1333 215° Southwest 180 207 6,100  Level Montreal Center
02:15PM 44.8000 -74.1833 215° Southwest 180 207 6,100  Level Montreal Center
02:16PM 44.7500 -74.2000 193° South 180 207 6,100  Level Montreal Center
02:17PM 44.7167 -74.2167 200° South 180 207 6,100  Level Montreal Center
02:18PM 44.6667 -74.2667 215° Southwest 180 207 6,100  Level Montreal Center
02:19PM 44.6333 -74.3000 215° Southwest 180 207 6,100 -60 Level Montreal Center
02:20PM 44.6000 -74.3167 200° South 180 207 6,000 -60 Descending Montreal Center
02:21PM 44.5500 -74.3667 215° Southwest 180 207 6,000  Level Montreal Center
02:22PM 44.5000 -74.4000 205° Southwest 180 207 6,000 300 Level Montreal Center
02:23PM 44.4667 -74.4167 200° South 170 196 6,600 660 Climbing Montreal Center
02:24PM 44.4167 -74.4500 205° Southwest 150 173 7,400 660 Climbing Montreal Center
02:25PM 44.3833 -74.4667 200° South 150 173 8,000 300 Climbing Montreal Center
02:26PM 44.3500 -74.5167 227° Southwest 160 184 8,000  Level Montreal Center
02:27PM 44.3000 -74.5500 206° Southwest 170 196 8,000 -60 Level Montreal Center
02:28PM 44.2500 -74.5667 193° South 180 207 7,900 -60 Descending Montreal Center
02:29PM 44.2167 -74.6000 216° Southwest 180 207 7,900  Level Montreal Center
02:30PM 44.1667 -74.6333 206° Southwest 170 196 7,900  Level Montreal Center
02:31PM 44.1333 -74.6667 216° Southwest 170 196 7,900  Level Montreal Center
02:32PM 44.0833 -74.6833 193° South 170 196 8,000  Climbing Montreal Center
02:33PM 44.0500 -74.7333 227° Southwest 180 207 8,000  Level Montreal Center
02:34PM 44.0000 -74.7667 206° Southwest 170 196 8,000  Level Montreal Center
02:35PM 43.9536 -74.7992 207° Southwest 181 208 8,000  Level Boston Center
02:36PM 43.9200 -74.8208 205° Southwest 181 208 8,000  Level Boston Center
02:37PM 43.8669 -74.8592 208° Southwest 181 208 8,000  Level Boston Center
02:38PM 43.8225 -74.8892 206° Southwest 181 208 8,000  Level Boston Center
02:39PM 43.7783 -74.9189 206° Southwest 181 208 8,000  Level Boston Center
02:41PM 43.7358 -74.9517 209° Southwest 181 208 8,000  Level Boston Center
02:42PM 43.6808 -74.9894 206° Southwest 181 208 8,000  Level Boston Center
02:43PM 43.6278 -75.0244 206° Southwest 181 208 8,000  Level Boston Center
02:45PM 43.5613 -75.0694 206° Southwest  Level FlightAware Approximate
02:46PM 43.4944 -75.1192 206° Southwest 181 208 8,000  Level Boston Center
02:47PM 43.4500 -75.1486 206° Southwest 181 208 7,900 -60 Descending Boston Center
02:48PM 43.4033 -75.1808 207° Southwest 181 208 7,900  Level Boston Center
02:49PM 43.3500 -75.2269 212° Southwest 181 208 8,000  Climbing Boston Center
02:50PM 43.3078 -75.2478 200° South 181 208 8,000  Level Boston Center
02:51PM 43.2569 -75.2853 208° Southwest 182 209 8,000  Level Boston Center
02:52PM 43.2167 -75.3147 208° Southwest 180 207 8,000  Level Boston Center
02:53PM 43.1739 -75.3500 211° Southwest 177 204 8,000  Level Boston Center
02:54PM 43.1317 -75.3736 202° Southwest 182 209 8,000  Level Boston Center
02:55PM 43.0831 -75.4025 203° Southwest 181 208 8,000  Level Boston Center
02:56PM 43.0342 -75.4369 207° Southwest 180 207 8,000  Level Boston Center
02:57PM 42.9981 -75.4608 206° Southwest 179 206 8,000  Level Boston Center
02:58PM 42.9472 -75.4953 206° Southwest 179 206 8,000  Level Boston Center
02:59PM 42.9047 -75.5242 206° Southwest 177 204 8,000  Level Boston Center
03:00PM 42.8622 -75.5533 207° Southwest 174 200 8,000  Level Boston Center
03:01PM 42.8175 -75.5850 207° Southwest 178 205 8,000  Level Boston Center
03:02PM 42.7731 -75.6139 206° Southwest 178 205 8,000  Level Boston Center
03:03PM 42.7261 -75.6483 208° Southwest 177 204 8,000  Level Boston Center
03:04PM 42.6794 -75.6797 206° Southwest 174 200 8,100 60 Climbing Boston Center
03:06PM 42.6111 -75.7122 199° South  Level FlightAware Approximate
03:13PM 42.3121 -75.9044 202° Southwest  Level FlightAware Approximate
03:14PM 42.2684 -75.9287 202° Southwest  Level FlightAware Approximate
03:15PM 42.2247 -75.9530 202° Southwest  Level FlightAware Approximate
03:16PM 42.2000 -75.9667 202° Southwest  Level FlightAware Approximate
03:17PM 42.2086 -75.9797 202° Southwest  Level Estimated
03:18PM 42.2086 -75.9797 202° Southwest  Level Estimated
03:19PM 42.2086 -75.9797 202° Southwest  Level Estimated
03:20PM 42.2086 -75.9797 202° Southwest  Level Estimated
03:21PM 42.2086 -75.9797 202° Southwest  Level Estimated
03:22PM 42.2086 -75.9797 202° Southwest  Level Estimated
03:23PM 42.2086 -75.9797 202° Southwest  Level Estimated
03:24PM 42.2086 -75.9797 202° Southwest  Level Estimated
03:25PM 42.2086 -75.9797 202° Southwest  Level Estimated
03:26PM 42.2086 -75.9797 202° Southwest  Level Estimated
03:27PM 42.2086 -75.9797 202° Southwest  Level Estimated